Stuart, FL (34996)

9:06 AM EDT on May 05, 2015 (GMT -0400)
Port Sewall | | Change Station
CLOSE
Current Station
Personal Weather Station
Location: Stuart, FL
Elevation: 33 ft
Nearby Weather Stations

Elev 33 ft 27.18 °N, 80.20 °W | Updated 13 minutes ago

Mostly Cloudy
Mostly Cloudy
75.4 °F
Feels Like 76 °F
N
1.0
Wind Variable Wind from ENE
Gusts 12.0 mph

Today
High -- | Low -- °F
--% Chance of Precip.
Yesterday
High -- | Low -- °F
Precip. -- in
6:39 AM 7:56 PM
Full, 98% visible
Pressure 30.14 in
Visibility 6.0 miles
Clouds Scattered Clouds 2500 ft
Mostly Cloudy 3500 ft
Heat Index 76 °F
Dew Point 68 °F
Humidity 78%
Rainfall 0.00 in
Snow Depth Not available.
UV 2 out of 12
Pollen .60 out of 12
Air Quality Not available.
Flu Activity Local Activity
METAR KSUA 051247Z 07016G24KT 6SM VCSH SCT025 BKN035 23/18 A3014

More Conditions Fewer Conditions

Pressure 30.14 in
Visibility 6.0 miles
Clouds Scattered Clouds 2500 ft
Mostly Cloudy 3500 ft
Heat Index 76 °F
Dew Point 68 °F
Humidity 78%
Rainfall 0.00 in
Snow Depth Not available.
UV 2 out of 12
Pollen .60 out of 12
Air Quality Not available.
Flu Activity Local Activity
METAR KSUA 051247Z 07016G24KT 6SM VCSH SCT025 BKN035 23/18 A3014

More Conditions Fewer Conditions

Nepal has a long way to go to dig out and rebuild from a devastating earthquake. We have teamed up with several charities and organizations to make contributing to the relief effort as easy as possible.
How you can help: Portlight Strategies | Red Cross
Nowcast | as of 4:31 am EDT on May 5, 2015

East northeast winds will increase into late morning as the pressure gradient tightens between high pressure north of the area and a low pressure trough developing over the Bahamas. Scattered showers will continue to develop across the Atlantic waters and move onshore from Martin to Volusia County and push into the interior. Some of the heavier showers may produce rainfall amounts of a quarter to half inch and gusty winds to 30 mph. Additional details...including graphics are available online at: http://www.Srh.NOAA.Gov/mlb/blog.Php

×

10-Day Weather Forecast

Almanac

Astronomy

May. 05, 2015 Rise Set
Actual Time
Civil Twilight
Nautical Twilight
Astronomical Twilight
Moon
Length of Visible Light
Length of Day
Tomorrow will be .
, % of the Moon is Illuminated

Today's Extremes

State Highs State Lows

Community

WunderPhotos

Upload Photos

1,818,876 photos uploaded!

WunderBlogs® & News

Nearby

Air Quality

  Air Quality AQ Index Pollutant
Not available.

Snow Depth

Station Depth Elevation

Earthquake Activity

City Distance Mag. Time & Date
Minimum magnitude displayed is 2.5.

Coastal Water Temperatures

Place Temperature

Stations

Nearby Weather Stations

Station Location Temp. Windchill Dew Point Humidity Wind Precip. Elev Updated Type